createdAt,value
2022-07-25T00:01:15.787Z,6.53
2022-07-25T00:03:47.117Z,6.70
2022-07-25T00:06:19.924Z,8.30
2022-07-25T00:08:51.361Z,6.45
2022-07-25T00:11:22.711Z,7.82
2022-07-25T00:13:53.998Z,8.38
2022-07-25T00:16:25.379Z,7.40
2022-07-25T00:18:56.785Z,7.72
2022-07-25T00:21:28.415Z,8.02
2022-07-25T00:23:59.860Z,5.05
2022-07-25T00:26:32.045Z,5.15
2022-07-25T00:29:05.728Z,7.50
2022-07-25T00:31:37.182Z,4.05
2022-07-25T00:34:09.078Z,6.38
2022-07-25T00:36:40.826Z,8.63
2022-07-25T00:39:12.442Z,5.88
2022-07-25T00:41:44.424Z,5.78
2022-07-25T00:44:27.337Z,4.50
2022-07-25T00:46:59.034Z,4.50
2022-07-25T00:49:30.595Z,6.10
2022-07-25T00:52:02.007Z,6.78
2022-07-25T00:54:33.713Z,7.47
2022-07-25T00:57:05.040Z,4.40
2022-07-25T00:59:36.363Z,4.03
2022-07-25T01:02:07.859Z,4.72
2022-07-25T01:04:39.936Z,5.72
2022-07-25T01:07:11.403Z,4.80
2022-07-25T01:09:42.959Z,5.20
2022-07-25T01:12:14.323Z,5.32
2022-07-25T01:14:45.645Z,4.80
2022-07-25T01:17:17.062Z,4.10
2022-07-25T01:19:48.548Z,7.30
2022-07-25T01:22:19.949Z,4.95
2022-07-25T01:24:51.242Z,5.85
2022-07-25T01:27:23.011Z,3.65
2022-07-25T01:29:54.395Z,4.38
2022-07-25T01:32:25.710Z,8.82
2022-07-25T01:34:57.035Z,4.80
2022-07-25T01:37:28.406Z,9.38
2022-07-25T01:39:59.845Z,3.83
2022-07-25T01:42:32.140Z,4.57
2022-07-25T01:45:04.847Z,4.45
2022-07-25T01:47:36.229Z,3.88
2022-07-25T01:50:08.272Z,4.40
2022-07-25T01:52:39.804Z,3.85
2022-07-25T01:55:11.232Z,4.70
2022-07-25T01:57:49.368Z,4.03
2022-07-25T02:00:21.674Z,5.80
2022-07-25T02:03:11.468Z,6.75
2022-07-25T02:05:42.770Z,6.00
2022-07-25T02:08:14.096Z,3.83
2022-07-25T02:10:46.521Z,5.90
2022-07-25T02:13:18.116Z,4.35
2022-07-25T02:15:49.872Z,5.45
2022-07-25T02:18:21.217Z,5.05
2022-07-25T02:20:52.629Z,4.75
2022-07-25T02:23:23.989Z,3.60
2022-07-25T02:25:55.291Z,3.92
2022-07-25T02:28:26.760Z,4.78
2022-07-25T02:30:58.141Z,3.97
2022-07-25T02:33:29.783Z,6.32
2022-07-25T02:36:01.167Z,4.35
2022-07-25T02:38:32.531Z,3.97
2022-07-25T02:41:04.541Z,10.18
2022-07-25T02:43:35.941Z,5.43
2022-07-25T02:46:07.386Z,3.53
2022-07-25T02:48:38.775Z,5.93
2022-07-25T02:51:10.253Z,4.78
2022-07-25T02:53:56.601Z,4.22
2022-07-25T02:56:29.941Z,4.78
2022-07-25T02:59:01.791Z,5.05
2022-07-25T03:01:33.394Z,6.78
2022-07-25T03:04:05.446Z,3.83
2022-07-25T03:06:36.901Z,3.67
2022-07-25T03:09:08.273Z,4.32
2022-07-25T03:11:39.626Z,4.93
2022-07-25T03:14:11.100Z,5.97
2022-07-25T03:16:42.458Z,6.00
2022-07-25T03:19:14.349Z,6.38
2022-07-25T03:21:46.138Z,4.80
2022-07-25T03:24:18.943Z,4.68
2022-07-25T03:26:50.420Z,4.00
2022-07-25T03:29:21.806Z,5.97
2022-07-25T03:31:53.239Z,4.72
2022-07-25T03:34:25.159Z,4.90
2022-07-25T03:36:56.710Z,6.25
2022-07-25T03:39:28.803Z,6.13
2022-07-25T03:42:00.204Z,4.72
2022-07-25T03:44:31.581Z,6.20
2022-07-25T03:47:02.900Z,4.22
2022-07-25T03:49:34.204Z,5.28
2022-07-25T03:52:05.625Z,3.92
2022-07-25T03:54:36.958Z,4.05
2022-07-25T03:57:08.556Z,5.40
2022-07-25T03:59:39.906Z,3.65
2022-07-25T04:02:11.353Z,6.55
2022-07-25T04:04:42.830Z,3.80
2022-07-25T04:07:14.226Z,4.25
2022-07-25T04:09:45.586Z,6.00
2022-07-25T04:12:16.924Z,6.35
2022-07-25T04:14:48.272Z,4.72
2022-07-25T04:17:19.990Z,4.72
2022-07-25T04:19:52.609Z,7.13
2022-07-25T04:22:24.089Z,4.10
2022-07-25T04:24:55.445Z,4.68
2022-07-25T04:27:26.795Z,7.63
2022-07-25T04:29:59.360Z,4.00
2022-07-25T04:32:30.690Z,3.92
2022-07-25T04:35:01.995Z,4.07
2022-07-25T04:37:33.339Z,4.95
2022-07-25T04:40:05.634Z,4.05
2022-07-25T04:42:36.925Z,3.47
2022-07-25T04:45:08.866Z,4.03
2022-07-25T04:47:40.635Z,5.68
2022-07-25T04:50:12.803Z,4.65
2022-07-25T04:52:44.296Z,4.35
2022-07-25T04:55:15.823Z,3.47
2022-07-25T04:57:47.315Z,4.80
2022-07-25T05:00:18.696Z,7.07
2022-07-25T05:02:51.422Z,4.07
2022-07-25T05:05:22.845Z,5.18
2022-07-25T05:07:59.075Z,3.60
2022-07-25T05:10:30.629Z,3.15
2022-07-25T05:13:01.975Z,4.25
2022-07-25T05:15:33.285Z,4.05
2022-07-25T05:18:04.875Z,5.13
2022-07-25T05:20:36.272Z,4.15
2022-07-25T05:23:07.678Z,5.97
2022-07-25T05:25:39.096Z,7.85
2022-07-25T05:28:10.445Z,6.35
2022-07-25T05:30:41.834Z,3.88
2022-07-25T05:33:13.175Z,3.45
2022-07-25T05:35:44.523Z,5.40
2022-07-25T05:38:15.845Z,5.00
2022-07-25T05:40:47.160Z,4.25
2022-07-25T05:43:19.131Z,4.88
2022-07-25T05:45:50.435Z,4.15
2022-07-25T05:48:21.841Z,3.03
2022-07-25T05:50:53.177Z,4.78
2022-07-25T05:53:25.028Z,4.10
2022-07-25T05:55:56.400Z,3.25
2022-07-25T05:58:30.030Z,6.63
2022-07-25T06:01:01.601Z,6.10
2022-07-25T06:03:34.262Z,4.72
2022-07-25T06:06:08.585Z,4.35
2022-07-25T06:08:40.283Z,3.90
2022-07-25T06:11:11.779Z,4.13
2022-07-25T06:13:44.181Z,6.65
2022-07-25T06:16:15.712Z,4.68
2022-07-25T06:18:47.162Z,3.55
2022-07-25T06:21:19.455Z,3.92
2022-07-25T06:23:50.821Z,2.90
2022-07-25T06:26:22.257Z,4.55
2022-07-25T06:28:53.659Z,3.92
2022-07-25T06:31:27.706Z,5.55
2022-07-25T06:33:59.276Z,4.80
2022-07-25T06:36:32.674Z,5.47
2022-07-25T06:39:04.341Z,6.43
2022-07-25T06:41:37.525Z,5.32
2022-07-25T06:44:09.218Z,5.13
2022-07-25T06:46:41.206Z,5.60
2022-07-25T06:49:12.835Z,6.03
2022-07-25T06:51:44.401Z,6.13
2022-07-25T06:54:15.743Z,5.25
2022-07-25T06:56:47.101Z,3.97
2022-07-25T06:59:18.521Z,5.20
2022-07-25T07:01:51.793Z,3.63
2022-07-25T07:04:23.314Z,6.20
2022-07-25T07:06:54.670Z,5.32
2022-07-25T07:09:25.990Z,5.25
2022-07-25T07:11:57.435Z,4.53
2022-07-25T07:14:28.889Z,4.85
2022-07-25T07:17:00.379Z,4.32
2022-07-25T07:19:31.824Z,8.95
2022-07-25T07:22:03.682Z,5.20
2022-07-25T07:24:38.804Z,4.43
2022-07-25T07:27:15.341Z,4.18
2022-07-25T07:29:51.070Z,4.63
2022-07-25T07:32:22.471Z,4.78
2022-07-25T07:34:53.810Z,4.97
2022-07-25T07:37:25.197Z,4.03
2022-07-25T07:39:56.486Z,6.00
2022-07-25T07:42:27.801Z,4.68
2022-07-25T07:44:59.430Z,5.28
2022-07-25T07:47:30.789Z,4.53
2022-07-25T07:50:02.095Z,4.00
2022-07-25T07:52:33.395Z,5.30
2022-07-25T07:55:23.755Z,6.35
2022-07-25T07:57:56.069Z,5.78
2022-07-25T08:00:30.918Z,7.32
2022-07-25T08:03:03.417Z,6.32
2022-07-25T08:05:43.192Z,5.30
2022-07-25T08:08:15.177Z,6.63
2022-07-25T08:10:48.631Z,5.43
2022-07-25T08:13:23.997Z,4.68
2022-07-25T08:15:58.041Z,6.75
2022-07-25T08:18:30.191Z,5.63
2022-07-25T08:21:04.084Z,5.82
2022-07-25T08:23:38.532Z,4.80
2022-07-25T08:26:09.883Z,4.47
2022-07-25T08:28:41.540Z,6.93
2022-07-25T08:31:12.904Z,7.28
2022-07-25T08:33:44.298Z,6.55
2022-07-25T08:36:15.617Z,8.23
2022-07-25T08:38:46.990Z,6.63
2022-07-25T08:41:18.308Z,8.25
2022-07-25T08:43:56.373Z,5.63
2022-07-25T08:46:30.086Z,4.90
2022-07-25T08:49:02.536Z,5.10
2022-07-25T08:51:34.387Z,5.75
2022-07-25T08:54:06.776Z,6.15
2022-07-25T08:56:38.724Z,7.45
2022-07-25T08:59:10.187Z,8.55
2022-07-25T09:01:41.721Z,8.48
2022-07-25T09:04:13.280Z,10.10
2022-07-25T09:06:51.785Z,21.63
2022-07-25T09:09:33.122Z,11.52
2022-07-25T09:12:05.872Z,9.73
2022-07-25T09:14:44.076Z,3.90
2022-07-25T09:17:22.648Z,6.20
2022-07-25T09:19:59.281Z,4.65
2022-07-25T09:22:30.636Z,4.97
2022-07-25T09:25:01.971Z,4.93
2022-07-25T09:27:34.478Z,8.13
2022-07-25T09:30:14.584Z,6.03
2022-07-25T09:32:46.277Z,8.68
2022-07-25T09:35:17.688Z,5.75
2022-07-25T09:37:49.005Z,7.65
2022-07-25T09:40:20.344Z,4.53
2022-07-25T09:42:52.395Z,5.80
2022-07-25T09:45:26.066Z,4.68
2022-07-25T09:48:04.117Z,6.28
2022-07-25T09:50:35.996Z,5.95
2022-07-25T09:53:07.328Z,6.03
2022-07-25T09:55:38.677Z,4.78
2022-07-25T09:58:10.006Z,4.82
2022-07-25T10:00:42.546Z,5.63
2022-07-25T10:03:32.420Z,4.55
2022-07-25T10:06:14.960Z,6.82
2022-07-25T10:08:47.761Z,5.57
2022-07-25T10:11:24.442Z,7.18
2022-07-25T10:13:56.607Z,7.57
2022-07-25T10:16:28.054Z,5.18
2022-07-25T10:18:59.615Z,5.85
2022-07-25T10:21:31.151Z,6.38
2022-07-25T10:24:05.916Z,4.15
2022-07-25T10:26:39.983Z,5.65
2022-07-25T10:29:12.728Z,4.72
2022-07-25T10:31:51.502Z,6.78
2022-07-25T10:34:33.251Z,4.40
2022-07-25T10:37:21.244Z,5.82
2022-07-25T10:39:52.729Z,4.90
2022-07-25T10:42:24.089Z,6.47
2022-07-25T10:44:57.539Z,5.57
2022-07-25T10:47:29.013Z,7.38
2022-07-25T10:53:00.347Z,5.15
2022-07-25T10:55:36.589Z,5.97
2022-07-25T10:58:22.323Z,4.32
2022-07-25T11:00:53.936Z,6.18
2022-07-25T11:03:26.263Z,4.78
2022-07-25T11:05:57.598Z,4.78
2022-07-25T11:08:35.750Z,3.95
2022-07-25T11:11:08.081Z,4.07
2022-07-25T11:13:41.826Z,4.13
2022-07-25T11:16:13.260Z,5.70
2022-07-25T11:18:44.641Z,5.70
2022-07-25T11:21:15.934Z,5.00
2022-07-25T11:23:53.685Z,4.95
2022-07-25T11:26:25.058Z,4.07
2022-07-25T11:28:56.386Z,6.72
2022-07-25T11:31:27.810Z,5.60
2022-07-25T11:33:59.275Z,5.47
2022-07-25T11:36:30.858Z,3.88
2022-07-25T11:39:02.363Z,4.50
2022-07-25T11:41:33.756Z,5.07
2022-07-25T11:44:05.572Z,8.20
2022-07-25T11:46:47.154Z,5.15
2022-07-25T11:49:18.566Z,6.28
2022-07-25T11:51:50.191Z,5.93
2022-07-25T11:54:21.646Z,6.18
2022-07-25T11:56:53.040Z,7.32
2022-07-25T11:59:25.287Z,5.45
2022-07-25T12:01:57.463Z,4.00
2022-07-25T12:04:28.876Z,6.22
2022-07-25T12:07:05.109Z,5.00
2022-07-25T12:09:36.424Z,4.18
2022-07-25T12:12:08.130Z,5.35
2022-07-25T12:14:43.783Z,8.00
2022-07-25T12:17:15.772Z,5.38
2022-07-25T12:19:47.339Z,5.03
2022-07-25T12:22:18.796Z,4.72
2022-07-25T12:24:50.193Z,6.95
2022-07-25T12:27:21.671Z,7.75
2022-07-25T12:29:53.004Z,5.00
2022-07-25T12:32:24.439Z,6.70
2022-07-25T12:34:55.740Z,5.22
2022-07-25T12:37:27.411Z,6.43
2022-07-25T12:39:58.835Z,5.00
2022-07-25T12:42:30.295Z,5.93
2022-07-25T12:45:01.893Z,5.63
2022-07-25T12:47:33.262Z,5.05
2022-07-25T12:50:05.805Z,4.40
2022-07-25T12:52:38.316Z,4.40
2022-07-25T12:55:13.248Z,5.28
2022-07-25T13:00:20.213Z,5.22
2022-07-25T13:02:53.070Z,5.85
2022-07-25T13:05:25.451Z,5.47
2022-07-25T13:07:56.793Z,4.53
2022-07-25T13:10:28.178Z,5.82
2022-07-25T13:12:59.492Z,5.82
2022-07-25T13:15:31.082Z,5.43
2022-07-25T13:18:03.333Z,5.35
2022-07-25T13:20:37.298Z,5.78
2022-07-25T13:23:08.626Z,5.27
2022-07-25T13:25:40.171Z,4.40
2022-07-25T13:28:11.613Z,5.18
2022-07-25T13:30:42.971Z,5.40
2022-07-25T13:33:14.399Z,8.05
2022-07-25T13:35:45.710Z,4.95
2022-07-25T13:38:17.036Z,5.03
2022-07-25T13:40:48.420Z,8.00
2022-07-25T13:43:19.719Z,4.40
2022-07-25T13:45:51.170Z,5.50
2022-07-25T13:48:30.604Z,4.63
2022-07-25T13:51:03.609Z,5.38
2022-07-25T13:53:34.958Z,5.70
2022-07-25T13:56:06.858Z,6.40
2022-07-25T13:58:38.544Z,6.60
2022-07-25T14:01:11.477Z,5.68
2022-07-25T14:03:42.961Z,5.97
2022-07-25T14:06:14.321Z,5.90
2022-07-25T14:08:45.801Z,5.15
2022-07-25T14:11:17.293Z,5.57
2022-07-25T14:13:48.623Z,6.53
2022-07-25T14:16:20.154Z,6.38
2022-07-25T14:18:51.756Z,5.82
2022-07-25T14:21:23.218Z,6.07
2022-07-25T14:23:54.639Z,4.47
2022-07-25T14:26:28.115Z,5.22
2022-07-25T14:28:59.527Z,8.25
2022-07-25T14:31:32.758Z,5.95
2022-07-25T14:34:04.170Z,6.03
2022-07-25T14:36:35.951Z,7.28
2022-07-25T14:39:08.040Z,7.35
2022-07-25T14:41:40.002Z,5.55
2022-07-25T14:44:11.342Z,5.38
2022-07-25T14:46:45.695Z,10.30
2022-07-25T14:49:17.325Z,11.55
2022-07-25T14:51:49.424Z,13.98
2022-07-25T14:54:20.948Z,12.60
2022-07-25T14:56:52.353Z,12.20
2022-07-25T14:59:24.386Z,13.93
2022-07-25T15:01:55.891Z,10.77
2022-07-25T15:04:27.348Z,13.20
2022-07-25T15:06:58.869Z,12.60
2022-07-25T15:09:30.177Z,12.98
2022-07-25T15:12:01.531Z,13.32
2022-07-25T15:14:32.848Z,16.77
2022-07-25T15:17:04.355Z,11.88
2022-07-25T15:19:35.672Z,14.82
2022-07-25T15:22:07.057Z,12.98
2022-07-25T15:25:04.409Z,11.43
2022-07-25T15:27:29.856Z,12.93
2022-07-25T15:30:01.469Z,14.10
2022-07-25T15:32:32.893Z,16.25
2022-07-25T15:35:04.730Z,15.05
2022-07-25T15:37:36.277Z,15.02
2022-07-25T15:40:08.374Z,13.18
2022-07-25T15:42:40.053Z,13.85
2022-07-25T15:48:03.671Z,13.13
2022-07-25T15:50:45.818Z,12.23
2022-07-25T15:53:17.625Z,13.18
2022-07-25T15:55:49.173Z,11.25
2022-07-25T15:58:20.486Z,11.68
2022-07-25T16:00:51.880Z,15.50
2022-07-25T16:03:23.907Z,11.27
2022-07-25T16:05:57.055Z,10.25
2022-07-25T16:08:28.480Z,11.45
2022-07-25T16:11:00.042Z,11.68
2022-07-25T16:13:31.503Z,17.17
2022-07-25T16:16:02.926Z,12.50
2022-07-25T16:18:34.402Z,11.75
2022-07-25T16:21:06.174Z,10.07
2022-07-25T16:23:42.581Z,19.05
2022-07-25T16:26:16.624Z,12.80
2022-07-25T16:28:48.639Z,12.18
2022-07-25T16:31:19.983Z,15.68
2022-07-25T16:33:51.309Z,12.25
2022-07-25T16:36:25.999Z,15.07
2022-07-25T16:38:59.237Z,13.45
2022-07-25T16:41:30.595Z,17.20
2022-07-25T16:44:02.817Z,16.20
2022-07-25T16:46:34.235Z,11.82
2022-07-25T16:49:06.210Z,13.27
2022-07-25T16:51:37.753Z,13.02
2022-07-25T16:54:10.589Z,13.90
2022-07-25T16:56:42.578Z,13.05
2022-07-25T16:59:13.940Z,14.15
2022-07-25T17:01:46.418Z,16.00
2022-07-25T17:04:18.025Z,10.48
2022-07-25T17:06:49.419Z,11.43
2022-07-25T17:09:21.638Z,11.80
2022-07-25T17:11:53.100Z,15.02
2022-07-25T17:14:29.939Z,13.95
2022-07-25T17:17:01.880Z,15.00
2022-07-25T17:19:36.198Z,14.43
2022-07-25T17:22:10.873Z,12.52
2022-07-25T17:24:42.224Z,12.48
2022-07-25T17:27:14.538Z,14.95
2022-07-25T17:29:45.911Z,14.10
2022-07-25T17:32:17.262Z,12.43
2022-07-25T17:34:48.644Z,10.70
2022-07-25T17:37:20.241Z,12.50
2022-07-25T17:39:51.650Z,11.50
2022-07-25T17:42:23.857Z,13.18
2022-07-25T17:44:55.438Z,13.13
2022-07-25T17:47:26.764Z,13.23
2022-07-25T17:49:58.071Z,10.75
2022-07-25T17:52:30.070Z,14.18
2022-07-25T17:55:03.425Z,12.13
2022-07-25T17:57:35.107Z,13.98
2022-07-25T18:00:07.271Z,10.07
2022-07-25T18:02:39.712Z,14.43
2022-07-25T18:05:11.307Z,12.35
2022-07-25T18:07:49.326Z,13.05
2022-07-25T18:10:21.739Z,13.88
2022-07-25T18:12:53.101Z,17.30
2022-07-25T18:15:24.580Z,17.65
2022-07-25T18:17:55.914Z,15.45
2022-07-25T18:20:28.109Z,15.00
2022-07-25T18:22:59.559Z,13.70
2022-07-25T18:25:31.028Z,14.80
2022-07-25T18:28:02.433Z,15.00
2022-07-25T18:30:33.869Z,12.45
2022-07-25T18:33:05.188Z,14.32
2022-07-25T18:35:36.639Z,12.00
2022-07-25T18:38:08.139Z,13.52
2022-07-25T18:40:39.562Z,11.98
2022-07-25T18:43:11.687Z,12.57
2022-07-25T18:45:43.263Z,10.70
2022-07-25T18:48:16.355Z,7.70
2022-07-25T18:50:47.714Z,13.40
2022-07-25T18:53:19.019Z,13.15
2022-07-25T18:55:50.468Z,12.48
2022-07-25T18:58:21.839Z,13.30
2022-07-25T19:00:53.240Z,18.35
2022-07-25T19:03:24.668Z,15.82
2022-07-25T19:06:01.228Z,10.20
2022-07-25T19:08:35.023Z,11.27
2022-07-25T19:11:06.981Z,14.68
2022-07-25T19:13:49.586Z,10.07
2022-07-25T19:16:21.864Z,12.25
2022-07-25T19:18:53.551Z,10.55
2022-07-25T19:21:25.093Z,11.77
2022-07-25T19:23:56.447Z,14.05
2022-07-25T19:26:28.188Z,10.02
2022-07-25T19:28:59.616Z,21.08
2022-07-25T19:31:31.077Z,9.32
2022-07-25T19:34:02.405Z,12.88
2022-07-25T19:36:33.965Z,15.30
2022-07-25T19:39:06.158Z,12.00
2022-07-25T19:41:42.100Z,10.48
2022-07-25T19:44:16.101Z,17.38
2022-07-25T19:46:48.942Z,9.30
2022-07-25T19:49:20.518Z,10.45
2022-07-25T19:51:51.945Z,12.93
2022-07-25T19:54:24.265Z,10.68
2022-07-25T19:56:55.807Z,13.05
2022-07-25T19:59:27.266Z,14.57
2022-07-25T20:01:59.002Z,10.75
2022-07-25T20:04:30.948Z,12.57
2022-07-25T20:07:03.201Z,13.27
2022-07-25T20:09:34.844Z,8.80
2022-07-25T20:12:06.625Z,9.07
2022-07-25T20:14:38.110Z,8.73
2022-07-25T20:17:10.792Z,11.07
2022-07-25T20:19:42.378Z,11.60
2022-07-25T20:22:13.698Z,9.73
2022-07-25T20:24:45.018Z,12.10
2022-07-25T20:27:16.499Z,9.27
2022-07-25T20:29:47.905Z,13.90
2022-07-25T20:32:19.258Z,11.32
2022-07-25T20:34:52.446Z,9.50
2022-07-25T20:37:23.926Z,11.93
2022-07-25T20:39:56.637Z,8.98
2022-07-25T20:42:28.046Z,15.48
2022-07-25T20:44:59.325Z,14.52
2022-07-25T20:47:30.629Z,6.47
2022-07-25T20:50:02.116Z,11.07
2022-07-25T20:52:33.547Z,8.07
2022-07-25T20:55:07.999Z,11.40
2022-07-25T20:57:39.331Z,11.80
2022-07-25T21:00:11.439Z,15.85
2022-07-25T21:02:42.952Z,9.35
2022-07-25T21:05:14.311Z,10.00
2022-07-25T21:07:45.702Z,15.23
2022-07-25T21:10:17.371Z,9.93
2022-07-25T21:12:48.862Z,11.20
2022-07-25T21:15:20.213Z,15.48
2022-07-25T21:17:51.670Z,8.95
2022-07-25T21:20:23.021Z,10.90
2022-07-25T21:22:55.257Z,14.30
2022-07-25T21:25:26.645Z,12.27
2022-07-25T21:27:57.943Z,9.43
2022-07-25T21:30:29.372Z,10.07
2022-07-25T21:33:01.121Z,10.67
2022-07-25T21:35:32.627Z,12.47
2022-07-25T21:38:27.365Z,8.23
2022-07-25T21:41:00.786Z,11.73
2022-07-25T21:43:32.101Z,11.57
2022-07-25T21:46:03.583Z,13.80
2022-07-25T21:49:05.337Z,14.80
2022-07-25T21:51:40.341Z,11.07
2022-07-25T21:54:12.366Z,10.50
2022-07-25T21:56:43.696Z,10.00
2022-07-25T21:59:15.048Z,10.87
2022-07-25T22:01:46.408Z,12.70
2022-07-25T22:04:18.014Z,15.23
2022-07-25T22:06:49.405Z,14.07
2022-07-25T22:09:21.062Z,13.60
2022-07-25T22:11:54.501Z,13.77
2022-07-25T22:14:26.092Z,9.13
2022-07-25T22:16:57.496Z,12.47
2022-07-25T22:19:28.822Z,8.90
2022-07-25T22:22:00.577Z,14.57
2022-07-25T22:24:32.139Z,9.63
2022-07-25T22:27:03.526Z,12.43
2022-07-25T22:29:34.942Z,12.93
2022-07-25T22:32:06.504Z,7.63
2022-07-25T22:34:37.829Z,10.47
2022-07-25T22:37:09.118Z,9.03
2022-07-25T22:39:40.453Z,8.27
2022-07-25T22:42:11.790Z,10.67
2022-07-25T22:47:18.965Z,11.20
2022-07-25T22:49:50.266Z,11.67
2022-07-25T22:52:21.588Z,8.67
2022-07-25T22:54:53.001Z,16.50
2022-07-25T22:57:24.328Z,6.73
2022-07-25T22:59:55.628Z,7.07
2022-07-25T23:02:27.137Z,8.37
2022-07-25T23:04:58.493Z,9.43
2022-07-25T23:07:29.868Z,9.20
2022-07-25T23:10:02.018Z,6.83
2022-07-25T23:12:33.824Z,10.23
2022-07-25T23:15:05.775Z,7.20
2022-07-25T23:17:37.082Z,7.67
2022-07-25T23:20:09.175Z,12.93
2022-07-25T23:22:40.565Z,4.90
2022-07-25T23:25:12.757Z,10.53
2022-07-25T23:27:44.397Z,9.27
2022-07-25T23:30:16.879Z,9.20
2022-07-25T23:32:48.344Z,6.80
2022-07-25T23:35:19.702Z,6.07
2022-07-25T23:37:51.006Z,6.60
2022-07-25T23:40:22.399Z,7.17
2022-07-25T23:42:54.373Z,12.00
2022-07-25T23:45:27.812Z,10.20
2022-07-25T23:47:59.298Z,8.87
2022-07-25T23:50:30.712Z,6.13
2022-07-25T23:53:02.031Z,7.83
2022-07-25T23:55:33.334Z,9.03
2022-07-25T23:58:04.707Z,6.50
